sensor_id;sensor_type;location;lat;lon;timestamp;P1;durP1;ratioP1;P2;durP2;ratioP2
30617;SDS011;17384;51.214;9.202;2024-01-15T00:00:37;14.88;;;7.93;;
30617;SDS011;17384;51.214;9.202;2024-01-15T00:03:03;12.75;;;7.60;;
30617;SDS011;17384;51.214;9.202;2024-01-15T00:05:29;12.45;;;7.93;;
30617;SDS011;17384;51.214;9.202;2024-01-15T00:07:54;12.32;;;8.30;;
30617;SDS011;17384;51.214;9.202;2024-01-15T00:10:20;14.85;;;7.00;;
30617;SDS011;17384;51.214;9.202;2024-01-15T00:12:45;12.35;;;6.90;;
30617;SDS011;17384;51.214;9.202;2024-01-15T00:15:11;12.75;;;7.22;;
30617;SDS011;17384;51.214;9.202;2024-01-15T00:17:36;12.60;;;8.07;;
30617;SDS011;17384;51.214;9.202;2024-01-15T00:20:02;13.00;;;6.60;;
30617;SDS011;17384;51.214;9.202;2024-01-15T00:22:28;13.02;;;6.82;;
30617;SDS011;17384;51.214;9.202;2024-01-15T00:24:54;15.50;;;8.07;;
30617;SDS011;17384;51.214;9.202;2024-01-15T00:27:19;14.18;;;7.45;;
30617;SDS011;17384;51.214;9.202;2024-01-15T00:29:45;14.77;;;7.50;;
30617;SDS011;17384;51.214;9.202;2024-01-15T00:32:10;13.43;;;8.65;;
30617;SDS011;17384;51.214;9.202;2024-01-15T00:34:36;16.75;;;8.80;;
30617;SDS011;17384;51.214;9.202;2024-01-15T00:37:01;14.25;;;8.88;;
30617;SDS011;17384;51.214;9.202;2024-01-15T00:39:27;17.27;;;8.80;;
30617;SDS011;17384;51.214;9.202;2024-01-15T00:41:53;16.17;;;7.95;;
30617;SDS011;17384;51.214;9.202;2024-01-15T00:44:19;20.55;;;8.75;;
30617;SDS011;17384;51.214;9.202;2024-01-15T00:46:44;15.68;;;9.05;;
30617;SDS011;17384;51.214;9.202;2024-01-15T00:49:11;17.50;;;8.75;;
30617;SDS011;17384;51.214;9.202;2024-01-15T00:51:38;17.23;;;9.68;;
30617;SDS011;17384;51.214;9.202;2024-01-15T00:54:04;16.63;;;8.75;;
30617;SDS011;17384;51.214;9.202;2024-01-15T00:56:30;15.48;;;9.02;;
30617;SDS011;17384;51.214;9.202;2024-01-15T00:58:55;16.40;;;9.48;;
30617;SDS011;17384;51.214;9.202;2024-01-15T01:01:20;17.35;;;9.70;;
30617;SDS011;17384;51.214;9.202;2024-01-15T01:03:46;18.10;;;10.15;;
30617;SDS011;17384;51.214;9.202;2024-01-15T01:06:11;16.33;;;8.98;;
30617;SDS011;17384;51.214;9.202;2024-01-15T01:08:37;18.70;;;8.82;;
30617;SDS011;17384;51.214;9.202;2024-01-15T01:11:04;16.40;;;8.73;;
30617;SDS011;17384;51.214;9.202;2024-01-15T01:13:31;16.02;;;8.30;;
30617;SDS011;17384;51.214;9.202;2024-01-15T01:15:56;13.10;;;8.05;;
30617;SDS011;17384;51.214;9.202;2024-01-15T01:18:22;14.63;;;8.85;;
30617;SDS011;17384;51.214;9.202;2024-01-15T01:20:47;17.45;;;9.52;;
30617;SDS011;17384;51.214;9.202;2024-01-15T01:23:13;13.35;;;7.88;;
30617;SDS011;17384;51.214;9.202;2024-01-15T01:25:38;14.15;;;8.65;;
30617;SDS011;17384;51.214;9.202;2024-01-15T01:28:04;14.10;;;8.90;;
30617;SDS011;17384;51.214;9.202;2024-01-15T01:30:29;13.75;;;8.98;;
30617;SDS011;17384;51.214;9.202;2024-01-15T01:32:55;15.60;;;8.75;;
30617;SDS011;17384;51.214;9.202;2024-01-15T01:35:20;14.75;;;8.02;;
30617;SDS011;17384;51.214;9.202;2024-01-15T01:37:45;13.88;;;7.78;;
30617;SDS011;17384;51.214;9.202;2024-01-15T01:40:11;13.98;;;8.73;;
30617;SDS011;17384;51.214;9.202;2024-01-15T01:42:36;17.92;;;8.57;;
30617;SDS011;17384;51.214;9.202;2024-01-15T01:45:02;14.82;;;8.95;;
30617;SDS011;17384;51.214;9.202;2024-01-15T01:47:28;14.05;;;8.52;;
30617;SDS011;17384;51.214;9.202;2024-01-15T01:49:54;14.95;;;8.75;;
30617;SDS011;17384;51.214;9.202;2024-01-15T01:52:20;12.57;;;8.50;;
30617;SDS011;17384;51.214;9.202;2024-01-15T01:54:45;13.32;;;7.97;;
30617;SDS011;17384;51.214;9.202;2024-01-15T01:57:11;18.23;;;9.50;;
30617;SDS011;17384;51.214;9.202;2024-01-15T01:59:37;13.52;;;7.88;;
30617;SDS011;17384;51.214;9.202;2024-01-15T02:02:03;12.77;;;8.55;;
30617;SDS011;17384;51.214;9.202;2024-01-15T02:04:30;14.50;;;8.57;;
30617;SDS011;17384;51.214;9.202;2024-01-15T02:06:57;15.45;;;8.57;;
30617;SDS011;17384;51.214;9.202;2024-01-15T02:09:24;12.80;;;7.90;;
30617;SDS011;17384;51.214;9.202;2024-01-15T02:11:50;13.77;;;8.02;;
30617;SDS011;17384;51.214;9.202;2024-01-15T02:14:16;12.20;;;7.32;;
30617;SDS011;17384;51.214;9.202;2024-01-15T02:16:41;15.00;;;7.55;;
30617;SDS011;17384;51.214;9.202;2024-01-15T02:19:07;14.98;;;8.65;;
30617;SDS011;17384;51.214;9.202;2024-01-15T02:21:39;11.20;;;7.75;;
30617;SDS011;17384;51.214;9.202;2024-01-15T02:24:05;16.27;;;8.30;;
30617;SDS011;17384;51.214;9.202;2024-01-15T02:26:30;15.63;;;8.88;;
30617;SDS011;17384;51.214;9.202;2024-01-15T02:28:56;15.23;;;8.50;;
30617;SDS011;17384;51.214;9.202;2024-01-15T02:31:21;13.38;;;8.23;;
30617;SDS011;17384;51.214;9.202;2024-01-15T02:33:47;16.23;;;8.70;;
30617;SDS011;17384;51.214;9.202;2024-01-15T02:36:12;13.05;;;7.78;;
30617;SDS011;17384;51.214;9.202;2024-01-15T02:38:38;14.00;;;7.20;;
30617;SDS011;17384;51.214;9.202;2024-01-15T02:41:03;12.40;;;7.25;;
30617;SDS011;17384;51.214;9.202;2024-01-15T02:43:29;12.57;;;7.90;;
30617;SDS011;17384;51.214;9.202;2024-01-15T02:45:55;10.25;;;7.38;;
30617;SDS011;17384;51.214;9.202;2024-01-15T02:48:20;12.75;;;7.43;;
30617;SDS011;17384;51.214;9.202;2024-01-15T02:50:45;14.57;;;6.95;;
30617;SDS011;17384;51.214;9.202;2024-01-15T02:53:11;12.27;;;6.80;;
30617;SDS011;17384;51.214;9.202;2024-01-15T02:55:36;11.30;;;6.75;;
30617;SDS011;17384;51.214;9.202;2024-01-15T02:58:02;12.35;;;7.00;;
30617;SDS011;17384;51.214;9.202;2024-01-15T03:00:28;11.73;;;6.72;;
30617;SDS011;17384;51.214;9.202;2024-01-15T03:02:54;10.50;;;6.50;;
30617;SDS011;17384;51.214;9.202;2024-01-15T03:05:19;11.40;;;6.95;;
30617;SDS011;17384;51.214;9.202;2024-01-15T03:07:45;13.20;;;7.18;;
30617;SDS011;17384;51.214;9.202;2024-01-15T03:10:10;9.52;;;5.97;;
30617;SDS011;17384;51.214;9.202;2024-01-15T03:12:36;11.85;;;6.85;;
30617;SDS011;17384;51.214;9.202;2024-01-15T03:15:01;8.95;;;5.32;;
30617;SDS011;17384;51.214;9.202;2024-01-15T03:17:27;10.65;;;6.38;;
30617;SDS011;17384;51.214;9.202;2024-01-15T03:19:53;11.27;;;6.45;;
30617;SDS011;17384;51.214;9.202;2024-01-15T03:22:18;10.18;;;5.88;;
30617;SDS011;17384;51.214;9.202;2024-01-15T03:24:44;10.07;;;6.45;;
30617;SDS011;17384;51.214;9.202;2024-01-15T03:27:10;11.43;;;6.70;;
30617;SDS011;17384;51.214;9.202;2024-01-15T03:29:35;9.82;;;6.30;;
30617;SDS011;17384;51.214;9.202;2024-01-15T03:32:01;9.02;;;5.47;;
30617;SDS011;17384;51.214;9.202;2024-01-15T03:34:26;11.77;;;6.80;;
30617;SDS011;17384;51.214;9.202;2024-01-15T03:36:52;11.18;;;6.97;;
30617;SDS011;17384;51.214;9.202;2024-01-15T03:39:17;10.95;;;6.60;;
30617;SDS011;17384;51.214;9.202;2024-01-15T03:41:43;14.35;;;6.55;;
30617;SDS011;17384;51.214;9.202;2024-01-15T03:44:08;11.15;;;6.63;;
30617;SDS011;17384;51.214;9.202;2024-01-15T03:46:34;8.38;;;6.13;;
30617;SDS011;17384;51.214;9.202;2024-01-15T03:48:59;12.50;;;7.72;;
30617;SDS011;17384;51.214;9.202;2024-01-15T03:51:25;14.45;;;6.53;;
30617;SDS011;17384;51.214;9.202;2024-01-15T03:53:50;14.48;;;6.35;;
30617;SDS011;17384;51.214;9.202;2024-01-15T03:56:16;15.73;;;6.38;;
30617;SDS011;17384;51.214;9.202;2024-01-15T03:58:41;15.38;;;6.75;;
30617;SDS011;17384;51.214;9.202;2024-01-15T04:01:10;16.85;;;6.90;;
30617;SDS011;17384;51.214;9.202;2024-01-15T04:03:36;13.88;;;6.57;;
30617;SDS011;17384;51.214;9.202;2024-01-15T04:06:02;12.57;;;6.00;;
30617;SDS011;17384;51.214;9.202;2024-01-15T04:08:28;14.10;;;6.18;;
30617;SDS011;17384;51.214;9.202;2024-01-15T04:10:53;14.35;;;6.90;;
30617;SDS011;17384;51.214;9.202;2024-01-15T04:13:20;12.20;;;6.10;;
30617;SDS011;17384;51.214;9.202;2024-01-15T04:15:45;12.25;;;5.60;;
30617;SDS011;17384;51.214;9.202;2024-01-15T04:18:11;14.43;;;6.28;;
30617;SDS011;17384;51.214;9.202;2024-01-15T04:20:36;11.70;;;5.63;;
30617;SDS011;17384;51.214;9.202;2024-01-15T04:23:02;10.90;;;6.28;;
30617;SDS011;17384;51.214;9.202;2024-01-15T04:25:27;10.10;;;5.13;;
30617;SDS011;17384;51.214;9.202;2024-01-15T04:27:53;14.75;;;5.65;;
30617;SDS011;17384;51.214;9.202;2024-01-15T04:30:18;12.73;;;5.78;;
30617;SDS011;17384;51.214;9.202;2024-01-15T04:32:44;12.93;;;5.45;;
30617;SDS011;17384;51.214;9.202;2024-01-15T04:35:09;12.43;;;5.05;;
30617;SDS011;17384;51.214;9.202;2024-01-15T04:37:35;12.50;;;5.07;;
30617;SDS011;17384;51.214;9.202;2024-01-15T04:40:00;14.10;;;5.55;;
30617;SDS011;17384;51.214;9.202;2024-01-15T04:42:26;9.02;;;4.70;;
30617;SDS011;17384;51.214;9.202;2024-01-15T04:44:51;17.17;;;4.97;;
30617;SDS011;17384;51.214;9.202;2024-01-15T04:47:17;11.95;;;4.90;;
30617;SDS011;17384;51.214;9.202;2024-01-15T04:49:42;11.90;;;5.20;;
30617;SDS011;17384;51.214;9.202;2024-01-15T04:52:08;14.40;;;4.97;;
30617;SDS011;17384;51.214;9.202;2024-01-15T04:54:35;18.20;;;5.57;;
30617;SDS011;17384;51.214;9.202;2024-01-15T04:57:01;17.52;;;4.68;;
30617;SDS011;17384;51.214;9.202;2024-01-15T04:59:27;14.68;;;5.68;;
30617;SDS011;17384;51.214;9.202;2024-01-15T05:01:53;15.90;;;4.88;;
30617;SDS011;17384;51.214;9.202;2024-01-15T05:04:18;8.95;;;4.13;;
30617;SDS011;17384;51.214;9.202;2024-01-15T05:06:44;6.75;;;4.07;;
30617;SDS011;17384;51.214;9.202;2024-01-15T05:09:09;17.10;;;4.53;;
30617;SDS011;17384;51.214;9.202;2024-01-15T05:11:35;13.40;;;4.68;;
30617;SDS011;17384;51.214;9.202;2024-01-15T05:14:00;14.07;;;4.70;;
30617;SDS011;17384;51.214;9.202;2024-01-15T05:16:25;9.00;;;4.47;;
30617;SDS011;17384;51.214;9.202;2024-01-15T05:18:51;14.40;;;4.20;;
30617;SDS011;17384;51.214;9.202;2024-01-15T05:21:16;19.15;;;5.05;;
30617;SDS011;17384;51.214;9.202;2024-01-15T05:23:42;10.10;;;3.70;;
30617;SDS011;17384;51.214;9.202;2024-01-15T05:26:07;19.33;;;5.82;;
30617;SDS011;17384;51.214;9.202;2024-01-15T05:28:34;8.93;;;4.32;;
30617;SDS011;17384;51.214;9.202;2024-01-15T05:30:59;10.70;;;4.38;;
30617;SDS011;17384;51.214;9.202;2024-01-15T05:33:25;9.05;;;4.72;;
30617;SDS011;17384;51.214;9.202;2024-01-15T05:35:50;11.98;;;4.40;;
30617;SDS011;17384;51.214;9.202;2024-01-15T05:38:17;9.30;;;4.30;;
30617;SDS011;17384;51.214;9.202;2024-01-15T05:40:42;11.32;;;4.53;;
30617;SDS011;17384;51.214;9.202;2024-01-15T05:43:08;12.57;;;4.70;;
30617;SDS011;17384;51.214;9.202;2024-01-15T05:45:34;13.57;;;5.07;;
30617;SDS011;17384;51.214;9.202;2024-01-15T05:48:03;11.75;;;5.15;;
30617;SDS011;17384;51.214;9.202;2024-01-15T05:50:29;15.70;;;4.45;;
30617;SDS011;17384;51.214;9.202;2024-01-15T05:52:54;14.98;;;5.90;;
30617;SDS011;17384;51.214;9.202;2024-01-15T05:55:20;16.30;;;5.30;;
30617;SDS011;17384;51.214;9.202;2024-01-15T05:57:45;17.70;;;5.40;;
30617;SDS011;17384;51.214;9.202;2024-01-15T06:00:11;14.98;;;6.22;;
30617;SDS011;17384;51.214;9.202;2024-01-15T06:02:37;16.92;;;5.68;;
30617;SDS011;17384;51.214;9.202;2024-01-15T06:05:04;17.02;;;6.28;;
30617;SDS011;17384;51.214;9.202;2024-01-15T06:07:30;14.63;;;6.05;;
30617;SDS011;17384;51.214;9.202;2024-01-15T06:09:55;12.10;;;5.07;;
30617;SDS011;17384;51.214;9.202;2024-01-15T06:12:22;17.95;;;5.72;;
30617;SDS011;17384;51.214;9.202;2024-01-15T06:14:47;16.63;;;5.90;;
30617;SDS011;17384;51.214;9.202;2024-01-15T06:17:13;14.02;;;5.97;;
30617;SDS011;17384;51.214;9.202;2024-01-15T06:19:39;15.57;;;6.50;;
30617;SDS011;17384;51.214;9.202;2024-01-15T06:22:04;16.65;;;5.28;;
30617;SDS011;17384;51.214;9.202;2024-01-15T06:24:30;10.13;;;5.32;;
30617;SDS011;17384;51.214;9.202;2024-01-15T06:26:55;16.13;;;5.45;;
30617;SDS011;17384;51.214;9.202;2024-01-15T06:29:21;21.77;;;7.47;;
30617;SDS011;17384;51.214;9.202;2024-01-15T06:31:46;14.20;;;6.88;;
30617;SDS011;17384;51.214;9.202;2024-01-15T06:34:12;16.63;;;6.00;;
30617;SDS011;17384;51.214;9.202;2024-01-15T06:36:37;18.13;;;8.20;;
30617;SDS011;17384;51.214;9.202;2024-01-15T06:39:03;12.27;;;5.15;;
30617;SDS011;17384;51.214;9.202;2024-01-15T06:41:29;15.80;;;6.70;;
30617;SDS011;17384;51.214;9.202;2024-01-15T06:43:54;21.05;;;5.10;;
30617;SDS011;17384;51.214;9.202;2024-01-15T06:46:21;10.63;;;5.55;;
30617;SDS011;17384;51.214;9.202;2024-01-15T06:48:47;16.35;;;6.05;;
30617;SDS011;17384;51.214;9.202;2024-01-15T06:51:12;13.23;;;5.10;;
30617;SDS011;17384;51.214;9.202;2024-01-15T06:53:38;17.10;;;5.82;;
30617;SDS011;17384;51.214;9.202;2024-01-15T06:56:03;22.00;;;6.07;;
30617;SDS011;17384;51.214;9.202;2024-01-15T06:58:32;19.00;;;6.63;;
30617;SDS011;17384;51.214;9.202;2024-01-15T07:00:58;12.68;;;5.63;;
30617;SDS011;17384;51.214;9.202;2024-01-15T07:03:26;16.02;;;6.20;;
30617;SDS011;17384;51.214;9.202;2024-01-15T07:05:52;23.23;;;6.97;;
30617;SDS011;17384;51.214;9.202;2024-01-15T07:08:17;15.05;;;7.07;;
30617;SDS011;17384;51.214;9.202;2024-01-15T07:10:43;14.88;;;6.15;;
30617;SDS011;17384;51.214;9.202;2024-01-15T07:13:08;10.57;;;5.68;;
30617;SDS011;17384;51.214;9.202;2024-01-15T07:15:34;20.42;;;5.50;;
30617;SDS011;17384;51.214;9.202;2024-01-15T07:17:59;19.02;;;6.28;;
30617;SDS011;17384;51.214;9.202;2024-01-15T07:20:24;11.02;;;5.13;;
30617;SDS011;17384;51.214;9.202;2024-01-15T07:22:50;17.48;;;6.53;;
30617;SDS011;17384;51.214;9.202;2024-01-15T07:25:16;12.02;;;5.95;;
30617;SDS011;17384;51.214;9.202;2024-01-15T07:27:42;14.93;;;5.60;;
30617;SDS011;17384;51.214;9.202;2024-01-15T07:30:11;21.75;;;6.20;;
30617;SDS011;17384;51.214;9.202;2024-01-15T07:32:37;18.17;;;5.53;;
30617;SDS011;17384;51.214;9.202;2024-01-15T07:35:03;25.52;;;5.97;;
30617;SDS011;17384;51.214;9.202;2024-01-15T07:37:29;14.57;;;7.30;;
30617;SDS011;17384;51.214;9.202;2024-01-15T07:39:54;13.32;;;6.43;;
30617;SDS011;17384;51.214;9.202;2024-01-15T07:42:20;16.75;;;5.93;;
30617;SDS011;17384;51.214;9.202;2024-01-15T07:44:45;16.23;;;7.00;;
30617;SDS011;17384;51.214;9.202;2024-01-15T07:47:12;17.67;;;6.88;;
30617;SDS011;17384;51.214;9.202;2024-01-15T07:49:37;23.67;;;6.80;;
30617;SDS011;17384;51.214;9.202;2024-01-15T07:52:03;17.08;;;7.05;;
30617;SDS011;17384;51.214;9.202;2024-01-15T07:54:30;18.45;;;7.28;;
30617;SDS011;17384;51.214;9.202;2024-01-15T07:57:00;27.80;;;6.97;;
30617;SDS011;17384;51.214;9.202;2024-01-15T07:59:26;15.68;;;6.93;;
30617;SDS011;17384;51.214;9.202;2024-01-15T08:01:52;19.88;;;6.85;;
30617;SDS011;17384;51.214;9.202;2024-01-15T08:04:18;16.88;;;6.78;;
30617;SDS011;17384;51.214;9.202;2024-01-15T08:06:44;16.70;;;7.07;;
30617;SDS011;17384;51.214;9.202;2024-01-15T08:09:10;14.50;;;6.47;;
30617;SDS011;17384;51.214;9.202;2024-01-15T08:11:36;17.23;;;6.90;;
30617;SDS011;17384;51.214;9.202;2024-01-15T08:14:05;17.08;;;6.45;;
30617;SDS011;17384;51.214;9.202;2024-01-15T08:16:30;13.93;;;6.25;;
30617;SDS011;17384;51.214;9.202;2024-01-15T08:18:56;16.00;;;6.90;;
30617;SDS011;17384;51.214;9.202;2024-01-15T08:21:21;21.40;;;7.60;;
30617;SDS011;17384;51.214;9.202;2024-01-15T08:23:47;13.95;;;7.03;;
30617;SDS011;17384;51.214;9.202;2024-01-15T08:26:12;10.88;;;7.00;;
30617;SDS011;17384;51.214;9.202;2024-01-15T08:28:38;16.52;;;8.00;;
30617;SDS011;17384;51.214;9.202;2024-01-15T08:31:03;22.52;;;7.90;;
30617;SDS011;17384;51.214;9.202;2024-01-15T08:33:29;16.23;;;7.50;;
30617;SDS011;17384;51.214;9.202;2024-01-15T08:35:54;14.85;;;7.55;;
30617;SDS011;17384;51.214;9.202;2024-01-15T08:38:20;17.30;;;7.18;;
30617;SDS011;17384;51.214;9.202;2024-01-15T08:40:45;13.27;;;6.57;;
30617;SDS011;17384;51.214;9.202;2024-01-15T08:43:11;13.00;;;7.18;;
30617;SDS011;17384;51.214;9.202;2024-01-15T08:45:36;14.52;;;7.18;;
30617;SDS011;17384;51.214;9.202;2024-01-15T08:48:02;13.80;;;7.15;;
30617;SDS011;17384;51.214;9.202;2024-01-15T08:50:28;13.80;;;7.32;;
30617;SDS011;17384;51.214;9.202;2024-01-15T08:52:54;14.32;;;7.15;;
30617;SDS011;17384;51.214;9.202;2024-01-15T08:55:20;17.98;;;7.47;;
30617;SDS011;17384;51.214;9.202;2024-01-15T08:57:47;15.10;;;7.03;;
30617;SDS011;17384;51.214;9.202;2024-01-15T09:00:13;12.65;;;6.35;;
30617;SDS011;17384;51.214;9.202;2024-01-15T09:02:39;17.85;;;6.28;;
30617;SDS011;17384;51.214;9.202;2024-01-15T09:05:05;13.60;;;6.35;;
30617;SDS011;17384;51.214;9.202;2024-01-15T09:07:32;10.27;;;5.90;;
30617;SDS011;17384;51.214;9.202;2024-01-15T09:09:57;15.25;;;6.00;;
30617;SDS011;17384;51.214;9.202;2024-01-15T09:12:24;13.30;;;6.00;;
30617;SDS011;17384;51.214;9.202;2024-01-15T09:14:50;13.52;;;6.80;;
30617;SDS011;17384;51.214;9.202;2024-01-15T09:17:17;14.98;;;5.60;;
30617;SDS011;17384;51.214;9.202;2024-01-15T09:19:42;14.57;;;5.38;;
30617;SDS011;17384;51.214;9.202;2024-01-15T09:22:08;11.32;;;4.90;;
30617;SDS011;17384;51.214;9.202;2024-01-15T09:24:33;12.27;;;5.70;;
30617;SDS011;17384;51.214;9.202;2024-01-15T09:26:59;12.73;;;4.47;;
30617;SDS011;17384;51.214;9.202;2024-01-15T09:29:25;9.63;;;5.15;;
30617;SDS011;17384;51.214;9.202;2024-01-15T09:31:50;11.88;;;5.15;;
30617;SDS011;17384;51.214;9.202;2024-01-15T09:34:16;9.45;;;5.03;;
30617;SDS011;17384;51.214;9.202;2024-01-15T09:36:42;10.88;;;4.63;;
30617;SDS011;17384;51.214;9.202;2024-01-15T09:39:10;14.18;;;5.63;;
30617;SDS011;17384;51.214;9.202;2024-01-15T09:41:36;9.98;;;5.63;;
30617;SDS011;17384;51.214;9.202;2024-01-15T09:44:03;11.60;;;4.97;;
30617;SDS011;17384;51.214;9.202;2024-01-15T09:46:29;12.38;;;5.18;;
30617;SDS011;17384;51.214;9.202;2024-01-15T09:48:57;11.52;;;5.60;;
30617;SDS011;17384;51.214;9.202;2024-01-15T09:51:23;12.52;;;5.28;;
30617;SDS011;17384;51.214;9.202;2024-01-15T09:53:50;11.32;;;5.28;;
30617;SDS011;17384;51.214;9.202;2024-01-15T09:56:15;12.02;;;5.25;;
30617;SDS011;17384;51.214;9.202;2024-01-15T09:58:41;10.30;;;5.47;;
30617;SDS011;17384;51.214;9.202;2024-01-15T10:01:08;8.43;;;4.22;;
30617;SDS011;17384;51.214;9.202;2024-01-15T10:03:34;9.35;;;4.78;;
30617;SDS011;17384;51.214;9.202;2024-01-15T10:06:00;11.45;;;4.97;;
30617;SDS011;17384;51.214;9.202;2024-01-15T10:08:27;14.75;;;5.50;;
30617;SDS011;17384;51.214;9.202;2024-01-15T10:10:53;9.45;;;5.05;;
30617;SDS011;17384;51.214;9.202;2024-01-15T10:13:18;7.97;;;4.13;;
30617;SDS011;17384;51.214;9.202;2024-01-15T10:15:46;8.05;;;3.97;;
30617;SDS011;17384;51.214;9.202;2024-01-15T10:18:14;7.07;;;4.63;;
30617;SDS011;17384;51.214;9.202;2024-01-15T10:20:40;6.40;;;3.90;;
30617;SDS011;17384;51.214;9.202;2024-01-15T10:23:05;11.15;;;4.20;;
30617;SDS011;17384;51.214;9.202;2024-01-15T10:25:31;5.50;;;3.97;;
30617;SDS011;17384;51.214;9.202;2024-01-15T10:27:59;19.05;;;4.72;;
30617;SDS011;17384;51.214;9.202;2024-01-15T10:30:26;9.77;;;4.47;;
30617;SDS011;17384;51.214;9.202;2024-01-15T10:32:58;13.95;;;5.40;;
30617;SDS011;17384;51.214;9.202;2024-01-15T10:35:30;16.95;;;6.97;;
30617;SDS011;17384;51.214;9.202;2024-01-15T10:37:57;8.95;;;5.88;;
30617;SDS011;17384;51.214;9.202;2024-01-15T10:40:22;18.17;;;6.60;;
30617;SDS011;17384;51.214;9.202;2024-01-15T10:42:48;11.35;;;6.90;;
30617;SDS011;17384;51.214;9.202;2024-01-15T10:45:14;11.85;;;6.97;;
30617;SDS011;17384;51.214;9.202;2024-01-15T10:47:40;16.08;;;8.20;;
30617;SDS011;17384;51.214;9.202;2024-01-15T10:50:07;18.08;;;7.78;;
30617;SDS011;17384;51.214;9.202;2024-01-15T10:52:35;15.70;;;7.82;;
30617;SDS011;17384;51.214;9.202;2024-01-15T10:55:01;16.52;;;8.20;;
30617;SDS011;17384;51.214;9.202;2024-01-15T10:57:29;12.30;;;7.35;;
30617;SDS011;17384;51.214;9.202;2024-01-15T10:59:55;15.43;;;7.45;;
30617;SDS011;17384;51.214;9.202;2024-01-15T11:02:21;13.63;;;7.68;;
30617;SDS011;17384;51.214;9.202;2024-01-15T11:04:47;13.93;;;7.32;;
30617;SDS011;17384;51.214;9.202;2024-01-15T11:07:13;9.45;;;5.80;;
30617;SDS011;17384;51.214;9.202;2024-01-15T11:09:39;9.73;;;6.65;;
30617;SDS011;17384;51.214;9.202;2024-01-15T11:12:11;9.45;;;6.07;;
30617;SDS011;17384;51.214;9.202;2024-01-15T11:14:39;11.50;;;6.75;;
30617;SDS011;17384;51.214;9.202;2024-01-15T11:17:12;10.05;;;6.03;;
30617;SDS011;17384;51.214;9.202;2024-01-15T11:22:49;8.95;;;5.53;;
30617;SDS011;17384;51.214;9.202;2024-01-15T11:25:01;7.03;;;5.22;;
30617;SDS011;17384;51.214;9.202;2024-01-15T11:27:44;7.93;;;5.47;;
30617;SDS011;17384;51.214;9.202;2024-01-15T11:30:10;6.95;;;5.25;;
30617;SDS011;17384;51.214;9.202;2024-01-15T11:32:37;10.68;;;6.07;;
30617;SDS011;17384;51.214;9.202;2024-01-15T11:35:06;6.30;;;4.60;;
30617;SDS011;17384;51.214;9.202;2024-01-15T11:40:22;5.90;;;4.30;;
30617;SDS011;17384;51.214;9.202;2024-01-15T11:43:04;5.90;;;4.82;;
30617;SDS011;17384;51.214;9.202;2024-01-15T11:45:34;5.93;;;3.90;;
30617;SDS011;17384;51.214;9.202;2024-01-15T11:50:36;5.40;;;4.20;;
30617;SDS011;17384;51.214;9.202;2024-01-15T11:53:06;5.13;;;3.80;;
30617;SDS011;17384;51.214;9.202;2024-01-15T11:55:43;5.45;;;3.75;;
30617;SDS011;17384;51.214;9.202;2024-01-15T11:58:10;5.18;;;4.45;;
30617;SDS011;17384;51.214;9.202;2024-01-15T12:00:43;5.25;;;3.90;;
30617;SDS011;17384;51.214;9.202;2024-01-15T12:03:16;5.22;;;4.03;;
30617;SDS011;17384;51.214;9.202;2024-01-15T12:05:43;4.68;;;3.88;;
30617;SDS011;17384;51.214;9.202;2024-01-15T12:08:09;3.97;;;3.58;;
30617;SDS011;17384;51.214;9.202;2024-01-15T12:10:37;5.25;;;3.92;;
30617;SDS011;17384;51.214;9.202;2024-01-15T12:15:36;6.38;;;4.55;;
30617;SDS011;17384;51.214;9.202;2024-01-15T12:18:03;5.55;;;3.85;;
30617;SDS011;17384;51.214;9.202;2024-01-15T12:20:30;4.82;;;3.90;;
30617;SDS011;17384;51.214;9.202;2024-01-15T12:22:56;4.72;;;3.83;;
30617;SDS011;17384;51.214;9.202;2024-01-15T12:25:25;4.05;;;3.28;;
30617;SDS011;17384;51.214;9.202;2024-01-15T12:27:54;5.00;;;3.53;;
30617;SDS011;17384;51.214;9.202;2024-01-15T12:30:20;4.95;;;3.00;;
30617;SDS011;17384;51.214;9.202;2024-01-15T12:32:46;3.58;;;3.13;;
30617;SDS011;17384;51.214;9.202;2024-01-15T12:35:12;3.45;;;3.00;;
30617;SDS011;17384;51.214;9.202;2024-01-15T12:37:42;4.03;;;3.20;;
30617;SDS011;17384;51.214;9.202;2024-01-15T12:40:08;7.55;;;3.33;;
30617;SDS011;17384;51.214;9.202;2024-01-15T12:42:35;3.00;;;2.53;;
30617;SDS011;17384;51.214;9.202;2024-01-15T12:45:02;7.72;;;2.60;;
30617;SDS011;17384;51.214;9.202;2024-01-15T12:47:30;3.25;;;2.60;;
30617;SDS011;17384;51.214;9.202;2024-01-15T12:49:55;3.33;;;2.35;;
30617;SDS011;17384;51.214;9.202;2024-01-15T12:52:22;6.63;;;2.38;;
30617;SDS011;17384;51.214;9.202;2024-01-15T12:54:48;2.70;;;2.30;;
30617;SDS011;17384;51.214;9.202;2024-01-15T12:57:15;2.58;;;2.20;;
30617;SDS011;17384;51.214;9.202;2024-01-15T12:59:40;2.75;;;2.10;;
30617;SDS011;17384;51.214;9.202;2024-01-15T13:02:06;2.58;;;1.90;;
30617;SDS011;17384;51.214;9.202;2024-01-15T13:04:32;1.98;;;1.77;;
30617;SDS011;17384;51.214;9.202;2024-01-15T13:06:58;5.93;;;2.20;;
30617;SDS011;17384;51.214;9.202;2024-01-15T13:09:23;1.90;;;1.70;;
30617;SDS011;17384;51.214;9.202;2024-01-15T13:11:48;1.73;;;1.60;;
30617;SDS011;17384;51.214;9.202;2024-01-15T13:14:14;6.38;;;2.35;;
30617;SDS011;17384;51.214;9.202;2024-01-15T13:16:40;1.83;;;1.70;;
30617;SDS011;17384;51.214;9.202;2024-01-15T13:19:07;2.35;;;1.80;;
30617;SDS011;17384;51.214;9.202;2024-01-15T13:21:39;4.82;;;1.73;;
30617;SDS011;17384;51.214;9.202;2024-01-15T13:24:05;6.95;;;1.52;;
30617;SDS011;17384;51.214;9.202;2024-01-15T13:26:31;1.77;;;1.40;;
30617;SDS011;17384;51.214;9.202;2024-01-15T13:28:58;5.03;;;1.88;;
30617;SDS011;17384;51.214;9.202;2024-01-15T13:31:30;4.68;;;1.75;;
30617;SDS011;17384;51.214;9.202;2024-01-15T13:33:56;11.93;;;1.90;;
30617;SDS011;17384;51.214;9.202;2024-01-15T13:36:22;6.30;;;2.10;;
30617;SDS011;17384;51.214;9.202;2024-01-15T13:38:49;2.55;;;1.50;;
30617;SDS011;17384;51.214;9.202;2024-01-15T13:41:15;2.45;;;1.58;;
30617;SDS011;17384;51.214;9.202;2024-01-15T13:43:40;4.78;;;1.30;;
30617;SDS011;17384;51.214;9.202;2024-01-15T13:46:06;6.35;;;1.42;;
30617;SDS011;17384;51.214;9.202;2024-01-15T13:48:31;6.88;;;1.65;;
30617;SDS011;17384;51.214;9.202;2024-01-15T13:50:57;10.27;;;1.63;;
30617;SDS011;17384;51.214;9.202;2024-01-15T13:53:24;5.65;;;1.70;;
30617;SDS011;17384;51.214;9.202;2024-01-15T13:55:50;10.63;;;2.35;;
30617;SDS011;17384;51.214;9.202;2024-01-15T13:58:15;6.22;;;2.03;;
30617;SDS011;17384;51.214;9.202;2024-01-15T14:00:42;4.20;;;2.40;;
30617;SDS011;17384;51.214;9.202;2024-01-15T14:03:08;9.63;;;2.60;;
30617;SDS011;17384;51.214;9.202;2024-01-15T14:05:33;6.63;;;2.72;;
30617;SDS011;17384;51.214;9.202;2024-01-15T14:07:59;8.80;;;2.40;;
30617;SDS011;17384;51.214;9.202;2024-01-15T14:10:24;6.40;;;2.70;;
30617;SDS011;17384;51.214;9.202;2024-01-15T14:12:49;6.95;;;2.67;;
30617;SDS011;17384;51.214;9.202;2024-01-15T14:15:15;8.80;;;2.72;;
30617;SDS011;17384;51.214;9.202;2024-01-15T14:17:40;9.15;;;2.60;;
30617;SDS011;17384;51.214;9.202;2024-01-15T14:20:06;5.93;;;2.60;;
30617;SDS011;17384;51.214;9.202;2024-01-15T14:22:34;6.28;;;2.53;;
30617;SDS011;17384;51.214;9.202;2024-01-15T14:24:59;3.75;;;3.03;;
30617;SDS011;17384;51.214;9.202;2024-01-15T14:27:25;7.20;;;3.25;;
30617;SDS011;17384;51.214;9.202;2024-01-15T14:29:51;9.73;;;2.90;;
30617;SDS011;17384;51.214;9.202;2024-01-15T14:32:16;7.97;;;3.00;;
30617;SDS011;17384;51.214;9.202;2024-01-15T14:34:42;7.82;;;2.90;;
30617;SDS011;17384;51.214;9.202;2024-01-15T14:37:08;5.53;;;3.50;;
30617;SDS011;17384;51.214;9.202;2024-01-15T14:39:33;7.13;;;3.30;;
30617;SDS011;17384;51.214;9.202;2024-01-15T14:41:59;8.18;;;3.28;;